sensor_id;sensor_type;location;lat;lon;timestamp;P1;P2;P0
68841;PMS5003;55849;48.482;2.332;2023-12-28T06:14:40;1.00;1.00;1.00
68841;PMS5003;55849;48.482;2.332;2023-12-28T06:17:43;3.00;3.00;1.00
68841;PMS5003;55849;48.482;2.332;2023-12-28T06:20:44;3.00;3.00;1.00
68841;PMS5003;55849;48.482;2.332;2023-12-28T06:23:46;3.00;1.00;0.75
68841;PMS5003;55849;48.482;2.332;2023-12-28T06:26:47;1.00;1.00;0.50
68841;PMS5003;55849;48.482;2.332;2023-12-28T06:29:50;1.50;1.50;1.00
68841;PMS5003;55849;48.482;2.332;2023-12-28T06:32:52;3.00;0.00;0.00
68841;PMS5003;55849;48.482;2.332;2023-12-28T06:35:53;3.25;1.25;0.00
68841;PMS5003;55849;48.482;2.332;2023-12-28T06:38:57;2.00;2.00;0.75
68841;PMS5003;55849;48.482;2.332;2023-12-28T06:41:59;3.00;3.00;1.00
68841;PMS5003;55849;48.482;2.332;2023-12-28T06:45:02;3.25;3.25;1.00
68841;PMS5003;55849;48.482;2.332;2023-12-28T06:48:04;8.00;4.50;3.00
68841;PMS5003;55849;48.482;2.332;2023-12-28T06:51:06;2.50;2.50;1.00
68841;PMS5003;55849;48.482;2.332;2023-12-28T06:54:08;3.25;2.00;1.00
68841;PMS5003;55849;48.482;2.332;2023-12-28T06:57:09;2.50;2.50;1.00
68841;PMS5003;55849;48.482;2.332;2023-12-28T07:00:13;6.00;2.50;1.00
68841;PMS5003;55849;48.482;2.332;2023-12-28T07:03:15;3.00;3.00;1.00
68841;PMS5003;55849;48.482;2.332;2023-12-28T07:06:16;1.00;1.00;0.75
68841;PMS5003;55849;48.482;2.332;2023-12-28T07:09:18;1.00;1.00;0.75
68841;PMS5003;55849;48.482;2.332;2023-12-28T07:12:19;1.00;1.00;1.00
68841;PMS5003;55849;48.482;2.332;2023-12-28T07:15:23;6.50;3.00;1.00
68841;PMS5003;55849;48.482;2.332;2023-12-28T07:18:25;6.00;4.00;3.00
68841;PMS5003;55849;48.482;2.332;2023-12-28T07:21:26;2.25;1.50;1.00
68841;PMS5003;55849;48.482;2.332;2023-12-28T07:24:28;2.00;2.00;2.00
68841;PMS5003;55849;48.482;2.332;2023-12-28T07:27:29;3.00;2.00;1.00
68841;PMS5003;55849;48.482;2.332;2023-12-28T07:30:32;2.50;1.00;1.00
68841;PMS5003;55849;48.482;2.332;2023-12-28T07:33:34;1.00;1.00;0.00
68841;PMS5003;55849;48.482;2.332;2023-12-28T07:36:35;3.25;1.00;1.00
68841;PMS5003;55849;48.482;2.332;2023-12-28T07:39:38;2.00;2.00;1.00
68841;PMS5003;55849;48.482;2.332;2023-12-28T07:42:40;0.25;0.25;0.25
68841;PMS5003;55849;48.482;2.332;2023-12-28T07:45:43;2.75;2.75;1.00
68841;PMS5003;55849;48.482;2.332;2023-12-28T07:48:45;3.75;2.50;1.00
68841;PMS5003;55849;48.482;2.332;2023-12-28T07:51:46;1.00;1.00;0.25
68841;PMS5003;55849;48.482;2.332;2023-12-28T07:54:48;1.00;1.00;0.50
68841;PMS5003;55849;48.482;2.332;2023-12-28T07:57:50;0.00;0.00;0.00
68841;PMS5003;55849;48.482;2.332;2023-12-28T08:00:53;0.75;0.75;0.50
68841;PMS5003;55849;48.482;2.332;2023-12-28T08:03:54;3.00;3.00;1.00
68841;PMS5003;55849;48.482;2.332;2023-12-28T08:06:56;3.00;0.00;0.00
68841;PMS5003;55849;48.482;2.332;2023-12-28T08:09:57;1.00;1.00;0.00
68841;PMS5003;55849;48.482;2.332;2023-12-28T08:12:59;0.75;0.75;0.50
68841;PMS5003;55849;48.482;2.332;2023-12-28T08:16:02;3.00;2.50;0.75
68841;PMS5003;55849;48.482;2.332;2023-12-28T08:19:04;6.00;6.00;3.00
68841;PMS5003;55849;48.482;2.332;2023-12-28T08:22:05;3.00;3.00;2.50
68841;PMS5003;55849;48.482;2.332;2023-12-28T08:25:07;5.50;5.50;2.75
68841;PMS5003;55849;48.482;2.332;2023-12-28T08:28:09;9.25;6.00;3.00
68841;PMS5003;55849;48.482;2.332;2023-12-28T08:31:13;6.00;3.25;3.00
68841;PMS5003;55849;48.482;2.332;2023-12-28T08:34:15;4.50;3.00;1.00
68841;PMS5003;55849;48.482;2.332;2023-12-28T08:37:16;4.00;3.00;1.00
68841;PMS5003;55849;48.482;2.332;2023-12-28T08:40:18;3.00;3.00;3.00
68841;PMS5003;55849;48.482;2.332;2023-12-28T08:43:20;3.50;2.00;1.00
68841;PMS5003;55849;48.482;2.332;2023-12-28T08:46:22;5.50;5.00;3.50
68841;PMS5003;55849;48.482;2.332;2023-12-28T08:49:25;9.75;3.00;1.00
68841;PMS5003;55849;48.482;2.332;2023-12-28T08:52:27;3.75;2.50;1.00
68841;PMS5003;55849;48.482;2.332;2023-12-28T08:55:30;3.25;3.25;1.00
68841;PMS5003;55849;48.482;2.332;2023-12-28T08:58:31;2.00;2.00;2.00
68841;PMS5003;55849;48.482;2.332;2023-12-28T09:01:34;2.50;1.50;1.00
68841;PMS5003;55849;48.482;2.332;2023-12-28T09:04:37;4.50;4.50;1.00
68841;PMS5003;55849;48.482;2.332;2023-12-28T09:07:38;4.00;4.00;3.25
68841;PMS5003;55849;48.482;2.332;2023-12-28T09:10:43;7.50;6.00;4.00
68841;PMS5003;55849;48.482;2.332;2023-12-28T09:13:44;3.00;3.00;1.50
68841;PMS5003;55849;48.482;2.332;2023-12-28T09:16:47;5.75;3.75;1.00
68841;PMS5003;55849;48.482;2.332;2023-12-28T09:19:49;3.00;3.00;1.50
68841;PMS5003;55849;48.482;2.332;2023-12-28T09:22:51;4.00;4.00;3.00
68841;PMS5003;55849;48.482;2.332;2023-12-28T09:25:56;6.00;6.00;3.75
68841;PMS5003;55849;48.482;2.332;2023-12-28T09:28:57;3.50;3.00;1.00
68841;PMS5003;55849;48.482;2.332;2023-12-28T09:32:00;6.00;6.00;4.00
68841;PMS5003;55849;48.482;2.332;2023-12-28T09:35:02;7.50;6.00;3.00
68841;PMS5003;55849;48.482;2.332;2023-12-28T09:38:04;10.75;6.75;3.00
68841;PMS5003;55849;48.482;2.332;2023-12-28T09:41:13;11.00;9.25;6.00
68841;PMS5003;55849;48.482;2.332;2023-12-28T09:44:16;6.00;6.00;3.75
68841;PMS5003;55849;48.482;2.332;2023-12-28T09:47:20;6.25;6.00;4.00
68841;PMS5003;55849;48.482;2.332;2023-12-28T09:50:22;6.25;6.25;4.00
68841;PMS5003;55849;48.482;2.332;2023-12-28T09:53:26;3.00;3.00;2.00
68841;PMS5003;55849;48.482;2.332;2023-12-28T09:56:28;5.75;4.50;4.00
68841;PMS5003;55849;48.482;2.332;2023-12-28T09:59:30;5.75;4.00;3.00
68841;PMS5003;55849;48.482;2.332;2023-12-28T10:02:35;10.00;6.00;4.00
68841;PMS5003;55849;48.482;2.332;2023-12-28T10:05:37;6.50;6.50;4.50
68841;PMS5003;55849;48.482;2.332;2023-12-28T10:08:44;7.00;4.00;3.00
68841;PMS5003;55849;48.482;2.332;2023-12-28T10:11:47;6.50;5.00;3.00
68841;PMS5003;55849;48.482;2.332;2023-12-28T10:14:50;10.00;6.00;3.00
68841;PMS5003;55849;48.482;2.332;2023-12-28T10:17:53;9.75;6.00;3.00
68841;PMS5003;55849;48.482;2.332;2023-12-28T10:20:54;4.00;4.00;3.00
68841;PMS5003;55849;48.482;2.332;2023-12-28T10:23:56;4.00;3.00;2.00
68841;PMS5003;55849;48.482;2.332;2023-12-28T10:26:58;10.00;3.50;1.00
68841;PMS5003;55849;48.482;2.332;2023-12-28T10:30:00;3.50;3.50;2.50
68841;PMS5003;55849;48.482;2.332;2023-12-28T10:33:04;4.50;4.00;3.00
68841;PMS5003;55849;48.482;2.332;2023-12-28T10:36:06;7.50;5.50;3.00
68841;PMS5003;55849;48.482;2.332;2023-12-28T10:39:10;6.50;5.50;3.75
68841;PMS5003;55849;48.482;2.332;2023-12-28T10:42:16;2.50;2.50;1.50
68841;PMS5003;55849;48.482;2.332;2023-12-28T10:45:25;8.00;3.00;1.00
68841;PMS5003;55849;48.482;2.332;2023-12-28T10:48:29;8.50;4.00;4.00
68841;PMS5003;55849;48.482;2.332;2023-12-28T10:51:36;6.25;4.00;3.00
68841;PMS5003;55849;48.482;2.332;2023-12-28T10:54:44;8.50;4.00;3.50
68841;PMS5003;55849;48.482;2.332;2023-12-28T10:57:52;6.00;6.00;4.00
68841;PMS5003;55849;48.482;2.332;2023-12-28T11:00:59;3.00;3.00;1.00
68841;PMS5003;55849;48.482;2.332;2023-12-28T11:04:07;9.00;6.00;4.00
68841;PMS5003;55849;48.482;2.332;2023-12-28T11:07:15;5.50;1.50;1.00
68841;PMS5003;55849;48.482;2.332;2023-12-28T11:10:18;6.00;6.00;3.75
68841;PMS5003;55849;48.482;2.332;2023-12-28T11:13:23;9.25;9.00;6.00
68841;PMS5003;55849;48.482;2.332;2023-12-28T11:16:25;3.00;3.00;1.00
68841;PMS5003;55849;48.482;2.332;2023-12-28T11:19:28;5.50;4.00;2.00
68841;PMS5003;55849;48.482;2.332;2023-12-28T11:22:31;1.00;1.00;1.00
68841;PMS5003;55849;48.482;2.332;2023-12-28T11:25:34;4.00;4.00;3.00
68841;PMS5003;55849;48.482;2.332;2023-12-28T11:28:36;4.00;4.00;3.75
68841;PMS5003;55849;48.482;2.332;2023-12-28T11:31:38;5.00;5.00;2.50
68841;PMS5003;55849;48.482;2.332;2023-12-28T11:34:40;0.00;0.00;0.00
68841;PMS5003;55849;48.482;2.332;2023-12-28T11:37:42;1.00;1.00;1.00
68841;PMS5003;55849;48.482;2.332;2023-12-28T11:40:48;3.00;3.00;0.50
68841;PMS5003;55849;48.482;2.332;2023-12-28T11:43:51;3.00;3.00;1.00
68841;PMS5003;55849;48.482;2.332;2023-12-28T11:46:54;4.00;4.00;3.00
68841;PMS5003;55849;48.482;2.332;2023-12-28T11:50:07;6.00;3.75;2.50
68841;PMS5003;55849;48.482;2.332;2023-12-28T11:53:09;3.00;3.00;3.00
68841;PMS5003;55849;48.482;2.332;2023-12-28T11:56:15;3.00;3.00;2.50
68841;PMS5003;55849;48.482;2.332;2023-12-28T11:59:17;3.50;1.50;0.50
68841;PMS5003;55849;48.482;2.332;2023-12-28T12:02:18;6.25;3.50;3.00
68841;PMS5003;55849;48.482;2.332;2023-12-28T12:05:22;3.50;3.50;3.00
68841;PMS5003;55849;48.482;2.332;2023-12-28T12:08:24;4.00;2.50;1.00
68841;PMS5003;55849;48.482;2.332;2023-12-28T12:11:25;4.00;1.50;1.00
68841;PMS5003;55849;48.482;2.332;2023-12-28T12:14:28;2.50;2.00;0.75
68841;PMS5003;55849;48.482;2.332;2023-12-28T12:17:30;3.00;2.50;0.75
68841;PMS5003;55849;48.482;2.332;2023-12-28T12:20:33;4.00;4.00;4.00
68841;PMS5003;55849;48.482;2.332;2023-12-28T12:23:35;7.75;3.75;3.00
68841;PMS5003;55849;48.482;2.332;2023-12-28T12:26:36;4.00;4.00;3.00
68841;PMS5003;55849;48.482;2.332;2023-12-28T12:29:38;6.25;4.00;3.00
68841;PMS5003;55849;48.482;2.332;2023-12-28T12:32:40;6.00;6.00;4.00
68841;PMS5003;55849;48.482;2.332;2023-12-28T12:35:44;6.50;6.50;3.00
68841;PMS5003;55849;48.482;2.332;2023-12-28T12:38:47;1.00;1.00;1.00
68841;PMS5003;55849;48.482;2.332;2023-12-28T12:41:49;3.50;3.50;2.00
68841;PMS5003;55849;48.482;2.332;2023-12-28T12:44:51;2.00;0.50;0.00
68841;PMS5003;55849;48.482;2.332;2023-12-28T12:47:53;3.00;3.00;1.00
68841;PMS5003;55849;48.482;2.332;2023-12-28T12:50:55;1.00;1.00;1.00
68841;PMS5003;55849;48.482;2.332;2023-12-28T12:53:57;4.00;2.00;1.00
68841;PMS5003;55849;48.482;2.332;2023-12-28T12:56:59;4.00;4.00;3.50
68841;PMS5003;55849;48.482;2.332;2023-12-28T13:00:00;3.00;3.00;2.50
68841;PMS5003;55849;48.482;2.332;2023-12-28T13:03:07;3.75;3.00;1.00
68841;PMS5003;55849;48.482;2.332;2023-12-28T13:06:10;4.50;3.50;3.00
68841;PMS5003;55849;48.482;2.332;2023-12-28T13:09:12;2.50;2.50;1.00
68841;PMS5003;55849;48.482;2.332;2023-12-28T13:12:13;6.25;6.25;4.50
68841;PMS5003;55849;48.482;2.332;2023-12-28T13:15:15;1.00;1.00;1.00
68841;PMS5003;55849;48.482;2.332;2023-12-28T13:18:17;4.00;4.00;3.00
68841;PMS5003;55849;48.482;2.332;2023-12-28T13:21:19;7.25;7.25;5.00
68841;PMS5003;55849;48.482;2.332;2023-12-28T13:24:21;3.25;3.25;2.00
68841;PMS5003;55849;48.482;2.332;2023-12-28T13:27:23;1.00;1.00;1.00
68841;PMS5003;55849;48.482;2.332;2023-12-28T13:30:24;3.00;3.00;1.50
68841;PMS5003;55849;48.482;2.332;2023-12-28T13:33:28;6.00;6.00;3.25
68841;PMS5003;55849;48.482;2.332;2023-12-28T13:36:31;4.00;3.25;1.50
68841;PMS5003;55849;48.482;2.332;2023-12-28T13:39:34;3.00;3.00;1.00
68841;PMS5003;55849;48.482;2.332;2023-12-28T13:42:38;3.00;2.00;1.00
68841;PMS5003;55849;48.482;2.332;2023-12-28T13:45:40;3.00;3.00;1.00
68841;PMS5003;55849;48.482;2.332;2023-12-28T13:48:42;3.00;3.00;1.00
68841;PMS5003;55849;48.482;2.332;2023-12-28T13:51:45;3.00;3.00;1.00
68841;PMS5003;55849;48.482;2.332;2023-12-28T13:54:46;3.75;3.00;1.00
68841;PMS5003;55849;48.482;2.332;2023-12-28T13:57:48;3.00;3.00;1.00
68841;PMS5003;55849;48.482;2.332;2023-12-28T14:00:50;11.75;8.00;6.50
68841;PMS5003;55849;48.482;2.332;2023-12-28T14:03:51;3.00;3.00;1.00
68841;PMS5003;55849;48.482;2.332;2023-12-28T14:06:54;0.50;0.50;0.00
68841;PMS5003;55849;48.482;2.332;2023-12-28T14:09:56;1.00;1.00;1.00
68841;PMS5003;55849;48.482;2.332;2023-12-28T14:12:58;1.00;1.00;0.75
68841;PMS5003;55849;48.482;2.332;2023-12-28T14:15:59;6.50;4.00;3.00
68841;PMS5003;55849;48.482;2.332;2023-12-28T14:19:01;6.00;6.00;3.50
68841;PMS5003;55849;48.482;2.332;2023-12-28T14:22:04;2.50;2.50;2.00
68841;PMS5003;55849;48.482;2.332;2023-12-28T14:25:07;7.50;5.50;3.00
68841;PMS5003;55849;48.482;2.332;2023-12-28T14:28:11;3.50;3.50;2.00
68841;PMS5003;55849;48.482;2.332;2023-12-28T14:31:13;2.50;1.00;1.00
68841;PMS5003;55849;48.482;2.332;2023-12-28T14:34:16;3.50;3.25;1.00
68841;PMS5003;55849;48.482;2.332;2023-12-28T14:37:19;7.00;3.00;1.00
68841;PMS5003;55849;48.482;2.332;2023-12-28T14:40:21;8.75;7.25;3.50
68841;PMS5003;55849;48.482;2.332;2023-12-28T14:43:22;5.50;2.50;1.00
68841;PMS5003;55849;48.482;2.332;2023-12-28T14:46:24;5.50;4.50;3.00
68841;PMS5003;55849;48.482;2.332;2023-12-28T14:49:26;6.75;6.75;4.00
68841;PMS5003;55849;48.482;2.332;2023-12-28T14:52:29;13.00;13.00;10.00
68841;PMS5003;55849;48.482;2.332;2023-12-28T14:55:30;7.50;6.25;4.00
68841;PMS5003;55849;48.482;2.332;2023-12-28T14:58:32;6.00;3.00;1.50
68841;PMS5003;55849;48.482;2.332;2023-12-28T15:01:33;3.00;3.00;3.00
68841;PMS5003;55849;48.482;2.332;2023-12-28T15:04:35;8.00;7.00;4.25
68841;PMS5003;55849;48.482;2.332;2023-12-28T15:07:39;6.00;6.00;3.75
68841;PMS5003;55849;48.482;2.332;2023-12-28T15:10:41;6.25;4.50;3.25
68841;PMS5003;55849;48.482;2.332;2023-12-28T15:13:43;8.00;8.00;5.25
68841;PMS5003;55849;48.482;2.332;2023-12-28T15:16:45;8.00;5.75;5.00
68841;PMS5003;55849;48.482;2.332;2023-12-28T15:19:48;7.00;6.00;4.00
68841;PMS5003;55849;48.482;2.332;2023-12-28T15:22:51;2.50;2.50;1.00
68841;PMS5003;55849;48.482;2.332;2023-12-28T15:25:53;12.75;12.00;8.00
68841;PMS5003;55849;48.482;2.332;2023-12-28T15:28:55;7.00;5.50;2.00
68841;PMS5003;55849;48.482;2.332;2023-12-28T15:31:57;6.50;3.75;3.50
68841;PMS5003;55849;48.482;2.332;2023-12-28T15:34:58;5.50;5.50;3.00
68841;PMS5003;55849;48.482;2.332;2023-12-28T15:38:03;6.25;6.00;4.00
68841;PMS5003;55849;48.482;2.332;2023-12-28T15:41:04;3.50;3.50;3.00
68841;PMS5003;55849;48.482;2.332;2023-12-28T15:44:06;6.50;4.00;1.00
68841;PMS5003;55849;48.482;2.332;2023-12-28T15:47:08;6.75;6.75;4.50
68841;PMS5003;55849;48.482;2.332;2023-12-28T15:50:09;6.00;6.00;3.00
68841;PMS5003;55849;48.482;2.332;2023-12-28T15:53:12;5.50;5.50;4.00
68841;PMS5003;55849;48.482;2.332;2023-12-28T15:56:14;6.00;6.00;6.00
68841;PMS5003;55849;48.482;2.332;2023-12-28T15:59:15;11.50;10.00;6.50
68841;PMS5003;55849;48.482;2.332;2023-12-28T16:02:17;8.75;8.25;6.50
68841;PMS5003;55849;48.482;2.332;2023-12-28T16:05:18;9.75;6.75;5.50
68841;PMS5003;55849;48.482;2.332;2023-12-28T16:08:21;8.50;7.50;5.00
68841;PMS5003;55849;48.482;2.332;2023-12-28T16:11:23;4.50;4.00;3.00
68841;PMS5003;55849;48.482;2.332;2023-12-28T16:14:25;7.50;6.00;4.00
68841;PMS5003;55849;48.482;2.332;2023-12-28T16:17:27;9.00;9.00;7.00
68841;PMS5003;55849;48.482;2.332;2023-12-28T16:20:29;15.00;13.00;9.25
68841;PMS5003;55849;48.482;2.332;2023-12-28T16:23:33;10.00;9.25;6.75
68841;PMS5003;55849;48.482;2.332;2023-12-28T16:26:34;10.75;6.00;4.00
68841;PMS5003;55849;48.482;2.332;2023-12-28T16:29:36;13.75;10.00;7.00
68841;PMS5003;55849;48.482;2.332;2023-12-28T16:32:38;7.00;7.00;4.00
68841;PMS5003;55849;48.482;2.332;2023-12-28T16:35:39;11.00;9.00;6.00
68841;PMS5003;55849;48.482;2.332;2023-12-28T16:38:42;12.75;9.00;4.50
68841;PMS5003;55849;48.482;2.332;2023-12-28T16:41:44;12.50;9.75;8.50
68841;PMS5003;55849;48.482;2.332;2023-12-28T16:44:46;9.25;9.25;6.75
68841;PMS5003;55849;48.482;2.332;2023-12-28T16:47:47;13.25;10.00;8.00
68841;PMS5003;55849;48.482;2.332;2023-12-28T16:50:49;14.50;7.00;6.25
68841;PMS5003;55849;48.482;2.332;2023-12-28T16:53:52;11.50;7.00;5.50
68841;PMS5003;55849;48.482;2.332;2023-12-28T16:56:53;7.50;7.00;5.50
68841;PMS5003;55849;48.482;2.332;2023-12-28T16:59:56;11.25;9.00;5.50
68841;PMS5003;55849;48.482;2.332;2023-12-28T17:02:57;9.00;9.00;5.50
68841;PMS5003;55849;48.482;2.332;2023-12-28T17:05:59;8.00;7.00;3.50
68841;PMS5003;55849;48.482;2.332;2023-12-28T17:09:02;9.75;8.50;6.25
68841;PMS5003;55849;48.482;2.332;2023-12-28T17:12:13;13.25;11.00;6.75
68841;PMS5003;55849;48.482;2.332;2023-12-28T17:15:23;10.25;6.00;4.00
68841;PMS5003;55849;48.482;2.332;2023-12-28T17:18:25;8.75;7.00;6.00
68841;PMS5003;55849;48.482;2.332;2023-12-28T17:21:29;12.00;9.75;6.00
68841;PMS5003;55849;48.482;2.332;2023-12-28T17:24:37;22.00;19.00;15.25
68841;PMS5003;55849;48.482;2.332;2023-12-28T17:27:47;9.75;9.00;6.50
68841;PMS5003;55849;48.482;2.332;2023-12-28T17:30:55;9.50;9.50;7.50
68841;PMS5003;55849;48.482;2.332;2023-12-28T17:33:58;12.75;10.25;7.00
68841;PMS5003;55849;48.482;2.332;2023-12-28T17:37:00;11.00;8.00;5.00
68841;PMS5003;55849;48.482;2.332;2023-12-28T17:40:05;17.00;10.00;7.00
68841;PMS5003;55849;48.482;2.332;2023-12-28T17:43:09;11.50;9.50;6.50
68841;PMS5003;55849;48.482;2.332;2023-12-28T17:46:17;10.00;10.00;6.50
68841;PMS5003;55849;48.482;2.332;2023-12-28T17:49:26;14.50;12.50;9.00
68841;PMS5003;55849;48.482;2.332;2023-12-28T17:52:29;9.75;7.50;6.25
68841;PMS5003;55849;48.482;2.332;2023-12-28T17:55:34;8.50;8.50;6.00
68841;PMS5003;55849;48.482;2.332;2023-12-28T17:58:36;6.00;6.00;4.00
68841;PMS5003;55849;48.482;2.332;2023-12-28T18:01:37;6.75;6.75;5.00
68841;PMS5003;55849;48.482;2.332;2023-12-28T18:04:39;7.00;7.00;6.00
68841;PMS5003;55849;48.482;2.332;2023-12-28T18:07:41;12.00;8.50;5.50
68841;PMS5003;55849;48.482;2.332;2023-12-28T18:10:44;12.00;9.25;7.00
68841;PMS5003;55849;48.482;2.332;2023-12-28T18:13:46;7.00;6.00;4.00
68841;PMS5003;55849;48.482;2.332;2023-12-28T18:16:47;9.50;9.50;5.50
68841;PMS5003;55849;48.482;2.332;2023-12-28T18:19:49;12.25;12.25;9.00
68841;PMS5003;55849;48.482;2.332;2023-12-28T18:22:50;4.50;4.50;3.00
68841;PMS5003;55849;48.482;2.332;2023-12-28T18:25:53;7.00;7.00;6.00
68841;PMS5003;55849;48.482;2.332;2023-12-28T18:28:55;11.25;9.75;6.25
68841;PMS5003;55849;48.482;2.332;2023-12-28T18:31:58;5.25;3.00;3.00
68841;PMS5003;55849;48.482;2.332;2023-12-28T18:34:59;8.50;6.00;5.50
68841;PMS5003;55849;48.482;2.332;2023-12-28T18:38:02;12.25;9.50;7.50
68841;PMS5003;55849;48.482;2.332;2023-12-28T18:41:05;12.00;9.00;7.00
68841;PMS5003;55849;48.482;2.332;2023-12-28T18:44:07;4.00;4.00;3.00
68841;PMS5003;55849;48.482;2.332;2023-12-28T18:47:08;6.25;6.25;3.25
68841;PMS5003;55849;48.482;2.332;2023-12-28T18:50:10;6.00;6.00;4.00
68841;PMS5003;55849;48.482;2.332;2023-12-28T18:53:11;9.00;9.00;6.00
68841;PMS5003;55849;48.482;2.332;2023-12-28T18:56:14;12.25;12.25;7.50
68841;PMS5003;55849;48.482;2.332;2023-12-28T18:59:16;6.00;6.00;5.00
68841;PMS5003;55849;48.482;2.332;2023-12-28T19:02:18;11.50;7.00;6.25
68841;PMS5003;55849;48.482;2.332;2023-12-28T19:05:21;6.50;6.00;4.00
68841;PMS5003;55849;48.482;2.332;2023-12-28T19:08:23;6.75;6.75;4.50
68841;PMS5003;55849;48.482;2.332;2023-12-28T19:11:26;5.50;5.50;3.25
68841;PMS5003;55849;48.482;2.332;2023-12-28T19:14:27;7.25;6.50;6.00
68841;PMS5003;55849;48.482;2.332;2023-12-28T19:17:29;8.00;5.75;3.00
68841;PMS5003;55849;48.482;2.332;2023-12-28T19:20:30;6.00;6.00;4.00
68841;PMS5003;55849;48.482;2.332;2023-12-28T19:23:32;4.00;4.00;3.00
68841;PMS5003;55849;48.482;2.332;2023-12-28T19:26:35;6.00;6.00;3.50
68841;PMS5003;55849;48.482;2.332;2023-12-28T19:29:36;6.50;4.25;3.50
68841;PMS5003;55849;48.482;2.332;2023-12-28T19:32:38;9.75;7.50;6.00
68841;PMS5003;55849;48.482;2.332;2023-12-28T19:35:40;7.00;4.50;3.00
68841;PMS5003;55849;48.482;2.332;2023-12-28T19:38:41;6.75;6.75;6.00
68841;PMS5003;55849;48.482;2.332;2023-12-28T19:41:44;4.00;4.00;3.75
68841;PMS5003;55849;48.482;2.332;2023-12-28T19:44:46;7.00;6.00;3.25
68841;PMS5003;55849;48.482;2.332;2023-12-28T19:47:47;20.00;12.50;9.25
68841;PMS5003;55849;48.482;2.332;2023-12-28T19:50:49;12.75;10.50;7.00
68841;PMS5003;55849;48.482;2.332;2023-12-28T19:53:50;19.25;12.75;7.00
68841;PMS5003;55849;48.482;2.332;2023-12-28T19:56:53;8.75;6.75;4.50
68841;PMS5003;55849;48.482;2.332;2023-12-28T19:59:55;11.50;9.75;7.00
68841;PMS5003;55849;48.482;2.332;2023-12-28T20:02:57;11.00;9.25;5.50
68841;PMS5003;55849;48.482;2.332;2023-12-28T20:05:58;11.00;9.00;6.50
68841;PMS5003;55849;48.482;2.332;2023-12-28T20:09:05;6.75;3.50;3.25
68841;PMS5003;55849;48.482;2.332;2023-12-28T20:12:08;6.25;4.00;3.00
68841;PMS5003;55849;48.482;2.332;2023-12-28T20:15:09;5.75;4.50;3.25
68841;PMS5003;55849;48.482;2.332;2023-12-28T20:18:13;4.00;4.00;3.00
68841;PMS5003;55849;48.482;2.332;2023-12-28T20:21:16;6.00;6.00;4.00
68841;PMS5003;55849;48.482;2.332;2023-12-28T20:24:20;5.50;4.00;3.50
68841;PMS5003;55849;48.482;2.332;2023-12-28T20:27:23;4.00;4.00;3.75
68841;PMS5003;55849;48.482;2.332;2023-12-28T20:30:25;6.00;4.00;3.00
68841;PMS5003;55849;48.482;2.332;2023-12-28T20:33:28;3.00;3.00;3.00
68841;PMS5003;55849;48.482;2.332;2023-12-28T20:36:30;3.75;3.75;3.75
68841;PMS5003;55849;48.482;2.332;2023-12-28T20:39:32;3.50;3.50;3.00
68841;PMS5003;55849;48.482;2.332;2023-12-28T20:42:35;7.50;5.50;3.75
68841;PMS5003;55849;48.482;2.332;2023-12-28T20:45:37;6.25;4.00;3.00
68841;PMS5003;55849;48.482;2.332;2023-12-28T20:48:38;3.75;3.25;3.00
68841;PMS5003;55849;48.482;2.332;2023-12-28T20:51:40;12.50;7.00;3.75
68841;PMS5003;55849;48.482;2.332;2023-12-28T20:54:42;6.75;6.00;3.50
68841;PMS5003;55849;48.482;2.332;2023-12-28T20:57:45;6.00;6.00;4.00
68841;PMS5003;55849;48.482;2.332;2023-12-28T21:00:46;4.50;4.50;3.00
68841;PMS5003;55849;48.482;2.332;2023-12-28T21:03:48;3.00;3.00;1.00
68841;PMS5003;55849;48.482;2.332;2023-12-28T21:06:49;4.50;4.50;3.00
68841;PMS5003;55849;48.482;2.332;2023-12-28T21:09:51;6.00;3.75;3.00
68841;PMS5003;55849;48.482;2.332;2023-12-28T21:12:54;3.00;3.00;1.00
68841;PMS5003;55849;48.482;2.332;2023-12-28T21:16:01;4.50;4.50;3.75
68841;PMS5003;55849;48.482;2.332;2023-12-28T21:19:03;6.25;4.50;4.00
68841;PMS5003;55849;48.482;2.332;2023-12-28T21:22:04;3.00;3.00;1.00
68841;PMS5003;55849;48.482;2.332;2023-12-28T21:25:06;7.00;3.00;1.00
68841;PMS5003;55849;48.482;2.332;2023-12-28T21:28:09;4.25;4.25;3.00
68841;PMS5003;55849;48.482;2.332;2023-12-28T21:31:11;5.50;5.50;2.75
68841;PMS5003;55849;48.482;2.332;2023-12-28T21:34:12;2.00;0.75;0.00
68841;PMS5003;55849;48.482;2.332;2023-12-28T21:37:14;4.00;1.00;1.00
68841;PMS5003;55849;48.482;2.332;2023-12-28T21:40:16;4.50;4.50;3.00
68841;PMS5003;55849;48.482;2.332;2023-12-28T21:43:19;4.00;3.00;2.00
68841;PMS5003;55849;48.482;2.332;2023-12-28T21:46:21;6.00;3.50;3.00
68841;PMS5003;55849;48.482;2.332;2023-12-28T21:49:22;3.00;3.00;1.00
68841;PMS5003;55849;48.482;2.332;2023-12-28T21:52:24;3.00;3.00;3.00
68841;PMS5003;55849;48.482;2.332;2023-12-28T21:55:25;1.00;1.00;1.00
68841;PMS5003;55849;48.482;2.332;2023-12-28T21:58:29;2.50;2.50;1.00
68841;PMS5003;55849;48.482;2.332;2023-12-28T22:01:31;4.75;2.50;1.00
68841;PMS5003;55849;48.482;2.332;2023-12-28T22:04:33;5.50;3.00;1.00
68841;PMS5003;55849;48.482;2.332;2023-12-28T22:07:34;4.50;4.00;2.00
68841;PMS5003;55849;48.482;2.332;2023-12-28T22:10:36;0.75;0.75;0.75
68841;PMS5003;55849;48.482;2.332;2023-12-28T22:13:39;4.25;3.00;1.00
68841;PMS5003;55849;48.482;2.332;2023-12-28T22:16:41;3.00;3.00;1.00
68841;PMS5003;55849;48.482;2.332;2023-12-28T22:19:42;6.75;3.00;1.00
68841;PMS5003;55849;48.482;2.332;2023-12-28T22:22:44;3.00;3.00;3.00
68841;PMS5003;55849;48.482;2.332;2023-12-28T22:25:46;4.25;3.75;3.00
68841;PMS5003;55849;48.482;2.332;2023-12-28T22:28:50;3.00;3.00;2.50
68841;PMS5003;55849;48.482;2.332;2023-12-28T22:31:51;4.00;3.75;1.50
68841;PMS5003;55849;48.482;2.332;2023-12-28T22:34:53;2.00;2.00;1.00
68841;PMS5003;55849;48.482;2.332;2023-12-28T22:37:55;7.75;4.50;3.00
68841;PMS5003;55849;48.482;2.332;2023-12-28T22:40:56;2.75;2.50;1.00
68841;PMS5003;55849;48.482;2.332;2023-12-28T22:44:00;5.00;4.50;3.25
68841;PMS5003;55849;48.482;2.332;2023-12-28T22:47:02;13.50;8.00;6.25
68841;PMS5003;55849;48.482;2.332;2023-12-28T22:50:04;7.00;6.00;3.00
68841;PMS5003;55849;48.482;2.332;2023-12-28T22:53:07;5.50;3.75;3.50
68841;PMS5003;55849;48.482;2.332;2023-12-28T22:56:09;3.50;3.50;3.00
68841;PMS5003;55849;48.482;2.332;2023-12-28T22:59:12;2.50;2.50;1.00
68841;PMS5003;55849;48.482;2.332;2023-12-28T23:02:14;7.50;2.00;1.00
68841;PMS5003;55849;48.482;2.332;2023-12-28T23:05:15;8.00;3.75;1.00
68841;PMS5003;55849;48.482;2.332;2023-12-28T23:08:17;2.50;2.50;0.50
68841;PMS5003;55849;48.482;2.332;2023-12-28T23:11:19;2.50;1.00;1.00
68841;PMS5003;55849;48.482;2.332;2023-12-28T23:14:23;4.00;3.00;1.00
68841;PMS5003;55849;48.482;2.332;2023-12-28T23:17:25;2.25;0.00;0.00
68841;PMS5003;55849;48.482;2.332;2023-12-28T23:20:26;2.50;2.50;1.00
68841;PMS5003;55849;48.482;2.332;2023-12-28T23:23:28;3.75;3.00;3.00
68841;PMS5003;55849;48.482;2.332;2023-12-28T23:26:30;4.00;4.00;3.00
68841;PMS5003;55849;48.482;2.332;2023-12-28T23:29:33;6.75;4.00;3.00
68841;PMS5003;55849;48.482;2.332;2023-12-28T23:32:34;2.50;2.50;1.00
68841;PMS5003;55849;48.482;2.332;2023-12-28T23:35:36;4.00;2.50;1.00
68841;PMS5003;55849;48.482;2.332;2023-12-28T23:38:37;3.25;3.25;3.25
68841;PMS5003;55849;48.482;2.332;2023-12-28T23:41:39;3.50;3.50;2.00
68841;PMS5003;55849;48.482;2.332;2023-12-28T23:44:42;5.00;5.00;4.00
68841;PMS5003;55849;48.482;2.332;2023-12-28T23:47:43;2.75;1.00;0.75
68841;PMS5003;55849;48.482;2.332;2023-12-28T23:50:45;3.00;3.00;2.50
68841;PMS5003;55849;48.482;2.332;2023-12-28T23:53:47;4.00;4.00;1.00
68841;PMS5003;55849;48.482;2.332;2023-12-28T23:56:49;5.00;4.00;1.00
68841;PMS5003;55849;48.482;2.332;2023-12-28T23:59:53;3.75;1.50;1.00
